createdAt,value
2023-09-14T00:00:11.452Z,18.94
2023-09-14T00:02:40.230Z,18.93
2023-09-14T00:05:10.400Z,18.94
2023-09-14T00:07:39.169Z,18.90
2023-09-14T00:10:09.911Z,18.91
2023-09-14T00:12:38.835Z,18.87
2023-09-14T00:15:08.774Z,18.85
2023-09-14T00:17:39.141Z,18.73
2023-09-14T00:20:11.217Z,18.69
2023-09-14T00:22:40.228Z,18.72
2023-09-14T00:25:09.594Z,18.77
2023-09-14T00:27:38.630Z,18.76
2023-09-14T00:30:09.639Z,18.74
2023-09-14T00:32:41.454Z,18.70
2023-09-14T00:35:11.921Z,18.65
2023-09-14T00:37:41.400Z,18.68
2023-09-14T00:40:13.542Z,18.62
2023-09-14T00:42:44.149Z,18.69
2023-09-14T00:45:15.546Z,18.60
2023-09-14T00:47:49.367Z,18.57
2023-09-14T00:50:19.112Z,18.62
2023-09-14T00:52:54.334Z,18.65
2023-09-14T00:55:24.787Z,18.63
2023-09-14T00:57:54.416Z,18.61
2023-09-14T01:00:23.846Z,18.67
2023-09-14T01:02:58.254Z,18.61
2023-09-14T01:05:32.439Z,18.54
2023-09-14T01:08:02.250Z,18.47
2023-09-14T01:10:31.121Z,18.39
2023-09-14T01:13:00.445Z,18.37
2023-09-14T01:15:35.890Z,18.39
2023-09-14T01:18:16.683Z,18.38
2023-09-14T01:21:32.115Z,18.31
2023-09-14T01:24:20.144Z,18.32
2023-09-14T01:26:51.509Z,18.28
2023-09-14T01:29:20.677Z,18.28
2023-09-14T01:31:49.586Z,18.23
2023-09-14T01:34:19.779Z,18.21
2023-09-14T01:36:58.226Z,18.23
2023-09-14T01:39:30.036Z,18.16
2023-09-14T01:42:00.663Z,18.18
2023-09-14T01:44:32.336Z,18.21
2023-09-14T01:47:03.350Z,18.25
2023-09-14T01:49:32.363Z,18.19
2023-09-14T01:52:01.315Z,18.16
2023-09-14T01:54:30.083Z,18.15
2023-09-14T01:57:00.214Z,18.08
2023-09-14T01:59:28.952Z,18.07
2023-09-14T02:01:57.998Z,18.05
2023-09-14T02:04:26.835Z,17.97
2023-09-14T02:06:55.734Z,17.93
2023-09-14T02:09:26.548Z,17.90
2023-09-14T02:11:55.232Z,17.89
2023-09-14T02:14:25.932Z,17.92
2023-09-14T02:16:54.784Z,17.85
2023-09-14T02:19:23.673Z,17.87
2023-09-14T02:21:53.102Z,17.81
2023-09-14T02:24:21.885Z,17.86
2023-09-14T02:26:52.742Z,17.92
2023-09-14T02:29:21.481Z,17.88
2023-09-14T02:31:51.614Z,17.90
2023-09-14T02:34:20.599Z,17.85
2023-09-14T02:36:49.538Z,17.68
2023-09-14T02:39:18.296Z,17.65
2023-09-14T02:41:47.079Z,17.72
2023-09-14T02:44:15.873Z,17.66
2023-09-14T02:46:46.918Z,17.68
2023-09-14T02:49:17.135Z,17.65
2023-09-14T02:51:46.014Z,17.59
2023-09-14T02:54:15.100Z,17.59
2023-09-14T02:56:43.850Z,17.61
2023-09-14T02:59:13.213Z,17.64
2023-09-14T03:01:41.950Z,17.64
2023-09-14T03:04:11.017Z,17.63
2023-09-14T03:06:41.315Z,17.52
2023-09-14T03:09:10.089Z,17.47
2023-09-14T03:11:38.892Z,17.52
2023-09-14T03:14:08.153Z,17.53
2023-09-14T03:16:37.266Z,17.39
2023-09-14T03:19:06.397Z,17.42
2023-09-14T03:21:35.406Z,17.49
2023-09-14T03:24:06.383Z,17.51
2023-09-14T03:26:35.325Z,17.48
2023-09-14T03:29:04.282Z,17.47
2023-09-14T03:31:33.211Z,17.38
2023-09-14T03:34:04.077Z,17.31
2023-09-14T03:36:33.782Z,17.31
2023-09-14T03:39:02.615Z,17.38
2023-09-14T03:41:37.980Z,17.35
2023-09-14T03:44:07.780Z,17.37
2023-09-14T03:46:36.798Z,17.27
2023-09-14T03:49:08.233Z,17.13
2023-09-14T03:51:37.543Z,17.14
2023-09-14T03:54:09.454Z,17.14
2023-09-14T03:56:41.619Z,17.14
2023-09-14T03:59:10.480Z,17.12
2023-09-14T04:01:39.379Z,17.01
2023-09-14T04:04:08.830Z,16.99
2023-09-14T04:06:37.787Z,17.01
2023-09-14T04:09:10.395Z,16.99
2023-09-14T04:11:40.928Z,16.92
2023-09-14T04:14:09.908Z,16.79
2023-09-14T04:16:39.178Z,16.89
2023-09-14T04:19:08.093Z,16.97
2023-09-14T04:24:08.553Z,16.99
2023-09-14T04:26:39.706Z,16.89
2023-09-14T04:29:10.018Z,16.95
2023-09-14T04:31:38.937Z,16.95
2023-09-14T04:34:09.214Z,16.92
2023-09-14T04:36:39.393Z,16.97
2023-09-14T04:39:09.641Z,16.93
2023-09-14T04:41:40.451Z,17.00
2023-09-14T04:44:09.537Z,17.03
2023-09-14T04:46:39.859Z,17.04
2023-09-14T04:49:09.009Z,17.05
2023-09-14T04:51:38.287Z,17.02
2023-09-14T04:54:07.773Z,17.05
2023-09-14T04:56:36.743Z,17.02
2023-09-14T04:59:07.120Z,17.01
2023-09-14T05:01:36.426Z,16.95
2023-09-14T05:04:05.978Z,16.96
2023-09-14T05:06:35.252Z,16.95
2023-09-14T05:09:04.335Z,16.93
2023-09-14T05:11:33.761Z,16.98
2023-09-14T05:14:03.137Z,16.96
2023-09-14T05:16:33.346Z,16.98
2023-09-14T05:19:05.375Z,16.95
2023-09-14T05:21:35.683Z,16.95
2023-09-14T05:24:04.550Z,16.88
2023-09-14T05:26:33.684Z,16.87
2023-09-14T05:29:02.626Z,16.83
2023-09-14T05:31:33.009Z,16.90
2023-09-14T05:34:02.077Z,16.85
2023-09-14T05:36:30.894Z,16.89
2023-09-14T05:38:59.703Z,16.94
2023-09-14T05:41:29.198Z,16.94
2023-09-14T05:43:58.176Z,16.89
2023-09-14T05:46:27.073Z,16.92
2023-09-14T05:48:57.366Z,16.85
2023-09-14T05:51:26.829Z,16.77
2023-09-14T05:53:55.606Z,16.86
2023-09-14T05:56:25.553Z,16.90
2023-09-14T05:58:55.160Z,16.73
2023-09-14T06:01:24.185Z,16.82
2023-09-14T06:03:53.311Z,16.80
2023-09-14T06:06:23.502Z,16.74
2023-09-14T06:08:53.315Z,16.77
2023-09-14T06:11:22.206Z,16.83
2023-09-14T06:13:51.215Z,16.85
2023-09-14T06:16:20.076Z,16.85
2023-09-14T06:18:49.176Z,16.90
2023-09-14T06:21:19.440Z,16.83
2023-09-14T06:23:49.735Z,16.84
2023-09-14T06:26:18.484Z,16.84
2023-09-14T06:28:47.667Z,16.87
2023-09-14T06:31:16.766Z,16.88
2023-09-14T06:33:45.686Z,16.86
2023-09-14T06:36:14.701Z,16.83
2023-09-14T06:38:43.465Z,16.69
2023-09-14T06:41:14.086Z,16.68
2023-09-14T06:43:44.223Z,16.74
2023-09-14T06:46:13.984Z,16.82
2023-09-14T06:48:44.195Z,16.82
2023-09-14T06:51:13.204Z,16.78
2023-09-14T06:53:42.027Z,16.78
2023-09-14T06:56:12.858Z,16.89
2023-09-14T06:58:41.723Z,16.94
2023-09-14T07:01:10.666Z,16.98
2023-09-14T07:03:39.761Z,17.00
2023-09-14T07:06:08.637Z,16.94
2023-09-14T07:08:42.082Z,16.88
2023-09-14T07:11:12.385Z,16.93
2023-09-14T07:13:41.694Z,17.04
2023-09-14T07:16:10.644Z,17.00
2023-09-14T07:18:39.435Z,17.04
2023-09-14T07:21:08.209Z,17.03
2023-09-14T07:23:36.995Z,17.02
2023-09-14T07:26:08.468Z,17.04
2023-09-14T07:28:39.312Z,16.96
2023-09-14T07:31:09.661Z,17.02
2023-09-14T07:33:38.570Z,17.01
2023-09-14T07:36:07.347Z,17.04
2023-09-14T07:38:36.147Z,17.04
2023-09-14T07:41:04.990Z,17.05
2023-09-14T07:43:33.757Z,17.08
2023-09-14T07:46:04.109Z,17.04
2023-09-14T07:48:33.314Z,17.09
2023-09-14T07:51:02.029Z,17.08
2023-09-14T07:53:30.821Z,17.13
2023-09-14T07:55:59.629Z,17.12
2023-09-14T07:58:28.679Z,17.14
2023-09-14T08:00:57.420Z,17.04
2023-09-14T08:03:29.000Z,16.98
2023-09-14T08:05:57.859Z,16.99
2023-09-14T08:08:26.624Z,16.95
2023-09-14T08:10:56.989Z,16.95
2023-09-14T08:13:25.909Z,16.98
2023-09-14T08:15:55.363Z,16.98
2023-09-14T08:18:24.219Z,16.99
2023-09-14T08:20:54.549Z,16.99
2023-09-14T08:23:23.358Z,16.97
2023-09-14T08:25:52.230Z,17.01
2023-09-14T08:28:22.491Z,17.04
2023-09-14T08:30:52.074Z,17.01
2023-09-14T08:33:21.413Z,17.03
2023-09-14T08:35:50.773Z,17.04
2023-09-14T08:38:22.812Z,17.03
2023-09-14T08:40:55.982Z,16.98
2023-09-14T08:43:25.590Z,16.98
2023-09-14T08:45:57.126Z,16.99
2023-09-14T08:48:31.096Z,16.99
2023-09-14T08:51:03.607Z,16.97
2023-09-14T08:53:34.034Z,16.95
2023-09-14T08:56:05.733Z,16.94
2023-09-14T08:58:36.453Z,16.97
2023-09-14T09:01:07.987Z,16.98
2023-09-14T09:03:37.221Z,17.02
2023-09-14T09:06:06.214Z,17.07
2023-09-14T09:08:36.843Z,17.12
2023-09-14T09:11:06.746Z,17.16
2023-09-14T09:13:37.193Z,17.25
2023-09-14T09:16:06.365Z,17.30
2023-09-14T09:18:37.142Z,17.35
2023-09-14T09:21:07.442Z,17.30
2023-09-14T09:23:37.743Z,17.38
2023-09-14T09:26:06.713Z,17.45
2023-09-14T09:28:47.957Z,17.46
2023-09-14T09:31:17.409Z,17.60
2023-09-14T09:33:50.194Z,17.70
2023-09-14T09:36:20.004Z,17.78
2023-09-14T09:38:51.754Z,17.84
2023-09-14T09:41:20.922Z,17.83
2023-09-14T09:43:53.009Z,17.89
2023-09-14T09:46:22.218Z,17.97
2023-09-14T09:48:51.856Z,18.01
2023-09-14T09:51:25.908Z,18.09
2023-09-14T09:54:07.392Z,18.13
2023-09-14T09:56:37.368Z,18.14
2023-09-14T09:59:11.115Z,18.14
2023-09-14T10:01:40.877Z,18.18
2023-09-14T10:04:13.283Z,18.24
2023-09-14T10:06:45.179Z,18.27
2023-09-14T10:09:15.453Z,18.31
2023-09-14T10:11:47.759Z,18.32
2023-09-14T10:14:20.803Z,18.37
2023-09-14T10:16:56.216Z,18.39
2023-09-14T10:19:28.382Z,18.47
2023-09-14T10:21:59.728Z,18.54
2023-09-14T10:24:30.894Z,18.64
2023-09-14T10:27:02.049Z,18.72
2023-09-14T10:29:33.930Z,18.71
2023-09-14T10:32:04.886Z,18.84
2023-09-14T10:34:38.344Z,18.70
2023-09-14T10:37:10.650Z,18.69
2023-09-14T10:39:41.448Z,18.82
2023-09-14T10:42:11.430Z,18.89
2023-09-14T10:44:40.740Z,18.93
2023-09-14T10:47:12.118Z,19.05
2023-09-14T10:49:45.706Z,19.20
2023-09-14T10:52:15.430Z,19.33
2023-09-14T10:54:45.937Z,19.42
2023-09-14T10:57:24.342Z,19.47
2023-09-14T10:59:55.293Z,19.52
2023-09-14T11:03:19.059Z,19.51
2023-09-14T11:05:50.254Z,19.58
2023-09-14T11:08:23.273Z,19.62
2023-09-14T11:11:01.104Z,19.81
2023-09-14T11:13:37.159Z,19.89
2023-09-14T11:16:19.123Z,20.00
2023-09-14T11:18:59.225Z,19.96
2023-09-14T11:21:48.176Z,20.01
2023-09-14T11:24:21.541Z,19.93
2023-09-14T11:26:54.149Z,19.90
2023-09-14T11:29:29.591Z,19.84
2023-09-14T11:32:06.916Z,19.82
2023-09-14T11:34:45.027Z,19.80
2023-09-14T11:37:20.118Z,19.85
2023-09-14T11:40:00.696Z,19.92
2023-09-14T11:43:37.477Z,19.99
2023-09-14T11:46:18.683Z,20.03
2023-09-14T11:51:26.820Z,20.09
2023-09-14T11:54:00.049Z,20.11
2023-09-14T11:56:29.449Z,20.04
2023-09-14T11:59:01.721Z,20.04
2023-09-14T12:01:34.305Z,19.93
2023-09-14T12:04:06.538Z,19.89
2023-09-14T12:06:35.717Z,19.88
2023-09-14T12:09:07.008Z,19.84
2023-09-14T12:11:44.266Z,19.84
2023-09-14T12:14:14.633Z,19.87
2023-09-14T12:16:43.737Z,19.88
2023-09-14T12:19:14.687Z,19.91
2023-09-14T12:21:44.285Z,19.80
2023-09-14T12:24:13.392Z,19.81
2023-09-14T12:26:42.308Z,19.88
2023-09-14T12:30:07.217Z,19.87
2023-09-14T12:32:37.506Z,19.75
2023-09-14T12:35:07.765Z,19.72
2023-09-14T12:37:40.149Z,19.63
2023-09-14T12:40:11.745Z,19.61
2023-09-14T12:42:43.947Z,19.52
2023-09-14T12:45:19.612Z,19.45
2023-09-14T12:47:49.823Z,19.40
2023-09-14T12:50:18.886Z,19.38
2023-09-14T12:52:50.337Z,19.38
2023-09-14T12:55:21.054Z,19.40
2023-09-14T12:57:51.913Z,19.40
2023-09-14T13:00:27.181Z,19.38
2023-09-14T13:02:58.181Z,19.40
2023-09-14T13:05:28.421Z,19.44
2023-09-14T13:08:02.518Z,19.53
2023-09-14T13:10:33.963Z,19.59
2023-09-14T13:13:09.233Z,19.67
2023-09-14T13:15:42.442Z,19.77
2023-09-14T13:18:18.643Z,19.91
2023-09-14T13:20:52.663Z,19.89
2023-09-14T13:23:22.673Z,19.91
2023-09-14T13:25:52.540Z,19.93
2023-09-14T13:28:21.454Z,20.00
2023-09-14T13:30:51.987Z,20.07
2023-09-14T13:33:21.977Z,20.13
2023-09-14T13:35:51.276Z,20.09
2023-09-14T13:38:20.143Z,20.23
2023-09-14T13:40:49.528Z,20.44
2023-09-14T13:43:18.577Z,20.75
2023-09-14T13:45:50.913Z,20.79
2023-09-14T13:48:20.710Z,20.76
2023-09-14T13:50:50.009Z,20.82
2023-09-14T13:53:19.223Z,20.87
2023-09-14T13:55:49.293Z,20.94
2023-09-14T13:58:18.311Z,21.02
2023-09-14T14:00:47.431Z,20.95
2023-09-14T14:03:18.138Z,20.72
2023-09-14T14:05:47.563Z,20.65
2023-09-14T14:08:16.622Z,20.51
2023-09-14T14:10:45.714Z,20.37
2023-09-14T14:13:14.895Z,20.25
2023-09-14T14:15:44.084Z,20.16
2023-09-14T14:18:13.008Z,20.11
2023-09-14T14:20:43.188Z,20.02
2023-09-14T14:23:12.531Z,19.99
2023-09-14T14:25:41.484Z,19.98
2023-09-14T14:28:10.382Z,20.01
2023-09-14T14:30:39.405Z,20.06
2023-09-14T14:33:08.522Z,20.10
2023-09-14T14:35:37.604Z,20.17
2023-09-14T14:38:07.916Z,20.18
2023-09-14T14:43:10.473Z,20.16
2023-09-14T14:45:39.416Z,20.14
2023-09-14T14:48:09.233Z,20.07
2023-09-14T14:50:38.068Z,19.98
2023-09-14T14:53:08.387Z,19.92
2023-09-14T14:55:37.854Z,19.83
2023-09-14T14:58:06.883Z,19.83
2023-09-14T15:00:37.734Z,19.86
2023-09-14T15:03:08.417Z,19.92
2023-09-14T15:05:38.561Z,19.98
2023-09-14T15:08:08.804Z,20.01
2023-09-14T15:10:37.774Z,19.93
2023-09-14T15:13:09.834Z,19.88
2023-09-14T15:15:38.902Z,19.78
2023-09-14T15:18:08.538Z,19.82
2023-09-14T15:20:37.367Z,19.83
2023-09-14T15:23:07.878Z,19.83
2023-09-14T15:25:36.825Z,19.82
2023-09-14T15:28:06.220Z,19.82
2023-09-14T15:30:35.019Z,19.82
2023-09-14T15:33:05.227Z,19.82
2023-09-14T15:35:34.719Z,19.83
2023-09-14T15:38:29.690Z,19.79
2023-09-14T15:41:03.753Z,19.77
2023-09-14T15:43:58.338Z,19.69
2023-09-14T15:46:27.446Z,19.62
2023-09-14T15:48:56.812Z,19.55
2023-09-14T15:51:35.024Z,19.52
2023-09-14T15:54:05.649Z,19.46
2023-09-14T15:57:17.111Z,19.36
2023-09-14T16:01:10.709Z,19.29
2023-09-14T16:03:46.348Z,19.22
2023-09-14T16:06:17.128Z,19.16
2023-09-14T16:08:46.227Z,19.17
2023-09-14T16:11:18.454Z,19.18
2023-09-14T16:13:47.528Z,19.22
2023-09-14T16:16:48.009Z,19.19
2023-09-14T16:19:17.493Z,19.16
2023-09-14T16:21:49.121Z,19.15
2023-09-14T16:24:19.395Z,19.00
2023-09-14T16:26:51.313Z,18.91
2023-09-14T16:29:20.130Z,18.81
2023-09-14T16:31:49.136Z,18.78
2023-09-14T16:34:20.127Z,18.70
2023-09-14T16:36:49.350Z,18.62
2023-09-14T16:39:18.160Z,18.53
2023-09-14T16:41:48.215Z,18.47
2023-09-14T16:44:16.905Z,18.37
2023-09-14T16:46:46.735Z,18.30
2023-09-14T16:49:25.280Z,18.23
2023-09-14T16:51:55.038Z,18.18
2023-09-14T16:54:26.262Z,18.14
2023-09-14T16:56:59.304Z,18.13
2023-09-14T16:59:29.007Z,18.12
2023-09-14T17:01:58.591Z,18.02
2023-09-14T17:04:27.493Z,17.99
2023-09-14T17:06:57.358Z,17.89
2023-09-14T17:09:26.934Z,17.91
2023-09-14T17:11:57.803Z,17.83
2023-09-14T17:14:29.069Z,17.75
2023-09-14T17:16:58.661Z,17.67
2023-09-14T17:19:29.123Z,17.62
2023-09-14T17:21:58.417Z,17.52
2023-09-14T17:24:27.489Z,17.41
2023-09-14T17:27:00.124Z,17.42
2023-09-14T17:29:30.949Z,17.36
2023-09-14T17:31:59.731Z,17.31
2023-09-14T17:34:30.042Z,17.30
2023-09-14T17:36:59.801Z,17.16
2023-09-14T17:39:29.473Z,17.10
2023-09-14T17:41:59.868Z,17.01
2023-09-14T17:44:29.204Z,16.97
2023-09-14T17:46:58.813Z,16.92
2023-09-14T17:49:29.053Z,16.98
2023-09-14T17:51:58.437Z,16.91
2023-09-14T17:54:28.101Z,16.83
2023-09-14T17:56:58.753Z,16.75
2023-09-14T17:59:27.828Z,16.68
2023-09-14T18:01:56.591Z,16.59
2023-09-14T18:04:25.400Z,16.59
2023-09-14T18:06:55.545Z,16.50
2023-09-14T18:09:24.633Z,16.59
2023-09-14T18:11:53.325Z,16.63
2023-09-14T18:14:23.386Z,16.55
2023-09-14T18:16:52.250Z,16.48
2023-09-14T18:19:22.093Z,16.34
2023-09-14T18:21:51.009Z,16.20
2023-09-14T18:24:20.032Z,16.16
2023-09-14T18:26:49.418Z,16.18
2023-09-14T18:29:19.743Z,16.14
2023-09-14T18:31:50.034Z,16.10
2023-09-14T18:34:19.962Z,16.04
2023-09-14T18:36:48.731Z,16.07
2023-09-14T18:39:19.349Z,15.96
2023-09-14T18:41:49.693Z,15.90
2023-09-14T18:44:18.829Z,15.91
2023-09-14T18:46:47.542Z,15.80
2023-09-14T18:49:18.170Z,15.79
2023-09-14T18:51:47.001Z,15.82
2023-09-14T18:54:15.842Z,15.76
2023-09-14T18:56:44.584Z,15.63
2023-09-14T18:59:32.200Z,15.49
2023-09-14T19:02:02.317Z,15.60
2023-09-14T19:04:34.252Z,15.57
2023-09-14T19:07:03.783Z,15.66
2023-09-14T19:09:33.562Z,15.69
2023-09-14T19:12:09.151Z,15.68
2023-09-14T19:14:39.168Z,15.64
2023-09-14T19:17:08.973Z,15.59
2023-09-14T19:19:44.298Z,15.37
2023-09-14T19:22:14.816Z,15.35
2023-09-14T19:24:43.559Z,15.31
2023-09-14T19:27:12.428Z,15.29
2023-09-14T19:29:41.901Z,15.27
2023-09-14T19:32:11.650Z,15.24
2023-09-14T19:34:57.949Z,15.22
2023-09-14T19:37:27.295Z,15.20
2023-09-14T19:39:56.074Z,15.12
2023-09-14T19:42:26.611Z,15.14
2023-09-14T19:44:59.583Z,15.09
2023-09-14T19:47:28.575Z,15.01
2023-09-14T19:49:58.986Z,15.05
2023-09-14T19:52:29.531Z,14.93
2023-09-14T20:03:16.393Z,14.60
2023-09-14T20:08:49.205Z,14.62
2023-09-14T20:11:18.940Z,14.52
2023-09-14T20:13:49.337Z,14.49
2023-09-14T20:16:18.327Z,14.50
2023-09-14T20:18:47.699Z,14.47
2023-09-14T20:21:17.782Z,14.43
2023-09-14T20:23:48.614Z,14.45
2023-09-14T20:26:17.471Z,14.39
2023-09-14T20:28:47.621Z,14.35
2023-09-14T20:31:16.782Z,14.31
2023-09-14T20:33:45.973Z,14.27
2023-09-14T20:36:16.860Z,14.17
2023-09-14T20:38:45.688Z,14.26
2023-09-14T20:41:18.112Z,14.26
2023-09-14T20:43:49.484Z,14.12
2023-09-14T20:46:22.977Z,14.09
2023-09-14T20:48:52.124Z,14.10
2023-09-14T20:51:20.872Z,14.00
2023-09-14T20:53:49.586Z,14.09
2023-09-14T20:56:19.963Z,14.22
2023-09-14T20:58:49.027Z,14.05
2023-09-14T21:01:18.190Z,14.01
2023-09-14T21:03:47.251Z,14.06
2023-09-14T21:06:16.150Z,14.05
2023-09-14T21:08:44.953Z,13.94
2023-09-14T21:11:13.915Z,13.97
2023-09-14T21:13:44.171Z,13.97
2023-09-14T21:16:13.242Z,13.86
2023-09-14T21:18:42.131Z,13.91
2023-09-14T21:21:11.045Z,13.84
2023-09-14T21:23:40.582Z,13.86
2023-09-14T21:26:10.084Z,13.89
2023-09-14T21:28:41.011Z,13.79
2023-09-14T21:31:11.292Z,13.74
2023-09-14T21:33:40.138Z,13.69
2023-09-14T21:36:09.387Z,13.72
2023-09-14T21:38:38.100Z,13.72
2023-09-14T21:41:08.015Z,13.81
2023-09-14T21:43:38.708Z,13.70
2023-09-14T21:46:10.488Z,13.64
2023-09-14T21:48:39.551Z,13.67
2023-09-14T21:51:08.524Z,13.63
2023-09-14T21:53:37.239Z,13.66
2023-09-14T21:56:06.283Z,13.70
2023-09-14T21:58:35.064Z,13.63
2023-09-14T22:01:04.246Z,13.56
2023-09-14T22:03:48.810Z,13.51
2023-09-14T22:06:24.745Z,13.48
2023-09-14T22:08:55.075Z,13.54
2023-09-14T22:11:23.904Z,13.61
2023-09-14T22:13:52.628Z,13.43
2023-09-14T22:16:21.642Z,13.37
2023-09-14T22:18:52.574Z,13.34
2023-09-14T22:21:24.133Z,13.31
2023-09-14T22:23:53.036Z,13.25
2023-09-14T22:26:21.815Z,13.20
2023-09-14T22:28:50.608Z,13.23
2023-09-14T22:31:20.768Z,13.26
2023-09-14T22:33:52.086Z,13.31
2023-09-14T22:36:21.146Z,13.35
2023-09-14T22:38:49.991Z,13.18
2023-09-14T22:41:18.881Z,13.09
2023-09-14T22:43:47.978Z,13.00
2023-09-14T22:46:17.651Z,13.02
2023-09-14T22:48:46.798Z,13.09
2023-09-14T22:51:18.360Z,13.21
2023-09-14T22:53:47.728Z,13.04
2023-09-14T22:56:17.354Z,12.98
2023-09-14T22:58:47.855Z,12.98
2023-09-14T23:01:16.989Z,12.85
2023-09-14T23:03:46.055Z,12.83
2023-09-14T23:06:17.004Z,12.82
2023-09-14T23:08:46.889Z,12.87
2023-09-14T23:11:24.873Z,12.80
2023-09-14T23:13:54.325Z,12.75
2023-09-14T23:16:26.516Z,12.88
2023-09-14T23:18:56.253Z,12.76
2023-09-14T23:21:27.172Z,12.74
2023-09-14T23:23:56.799Z,12.69
2023-09-14T23:26:26.098Z,12.60
2023-09-14T23:28:55.938Z,12.63
2023-09-14T23:31:25.779Z,12.63
2023-09-14T23:33:54.551Z,12.59
2023-09-14T23:36:23.394Z,12.50
2023-09-14T23:38:53.729Z,12.46
2023-09-14T23:41:23.067Z,12.52
2023-09-14T23:43:51.918Z,12.53
2023-09-14T23:46:22.529Z,12.52
2023-09-14T23:48:52.722Z,12.47
2023-09-14T23:51:21.823Z,12.42
2023-09-14T23:53:50.930Z,12.40
2023-09-14T23:56:21.164Z,12.36
2023-09-14T23:58:49.970Z,12.38
